Time;durP1;ratioP1;P1;durP2;ratioP2;P2;SDS_P1;SDS_P2;PMS_P1;PMS_P2;Temp;Humidity;BMP_temperature;BMP_pressure;BME280_temperature;BME280_humidity;BME280_pressure;Samples;Min_cycle;Max_cycle;Signal;HPM_P1;HPM_P2
2022/08/13 00:00:37;;;;;;;11.68;9.18;;;20.60;99.90;;;;;;5042815;28;20220;-78
2022/08/13 00:03:33;;;;;;;11.65;9.10;;;20.60;99.90;;;;;;5035204;28;20594;-79
2022/08/13 00:10:06;;;;;;;9.63;7.65;;;20.60;99.90;;;;;;5041117;28;20253;-77
2022/08/13 00:12:57;;;;;;;9.65;8.73;;;20.60;99.90;;;;;;5057215;28;20232;-79
2022/08/13 00:15:48;;;;;;;9.07;8.32;;;20.50;99.90;;;;;;5059857;28;20673;-79
2022/08/13 00:18:44;;;;;;;10.23;8.88;;;20.50;99.90;;;;;;5060179;28;20236;-81
2022/08/13 00:21:34;;;;;;;11.88;8.88;;;20.50;99.90;;;;;;5057791;28;20303;-81
2022/08/13 00:24:45;;;;;;;9.60;8.60;;;20.50;99.90;;;;;;5060460;28;20720;-81
2022/08/13 00:27:47;;;;;;;9.00;7.95;;;20.50;99.90;;;;;;5061494;28;20231;-81
2022/08/13 00:30:51;;;;;;;9.65;8.63;;;20.50;99.90;;;;;;5061443;28;20223;-81
2022/08/13 00:33:39;;;;;;;8.85;7.80;;;20.40;99.90;;;;;;5061765;28;20227;-79
2022/08/13 00:36:36;;;;;;;8.77;7.88;;;20.40;99.90;;;;;;5059361;28;20220;-79
2022/08/13 00:39:25;;;;;;;8.85;8.05;;;20.40;99.90;;;;;;5065991;28;20212;-79
2022/08/13 00:42:34;;;;;;;10.77;8.07;;;20.50;99.90;;;;;;5063027;28;20744;-75
2022/08/13 00:45:38;;;;;;;10.05;8.15;;;20.50;99.90;;;;;;5059680;28;20220;-79
2022/08/13 00:48:42;;;;;;;9.60;8.27;;;20.50;99.90;;;;;;5058784;28;20241;-78
2022/08/13 00:51:42;;;;;;;8.85;7.95;;;20.50;99.90;;;;;;5059071;28;20316;-78
2022/08/13 00:54:49;;;;;;;10.88;7.95;;;20.60;99.90;;;;;;5060524;28;20239;-78
2022/08/13 00:57:46;;;;;;;10.02;8.50;;;20.40;99.90;;;;;;5061385;28;20227;-80
2022/08/13 01:00:40;;;;;;;8.48;7.25;;;20.40;99.90;;;;;;5045611;28;20307;-78
2022/08/13 01:03:34;;;;;;;9.07;7.45;;;20.40;99.90;;;;;;5060528;28;20227;-78
2022/08/13 01:06:43;;;;;;;8.98;7.55;;;20.40;99.90;;;;;;5058567;28;20224;-79
2022/08/13 01:09:40;;;;;;;8.35;7.32;;;20.50;99.90;;;;;;5058444;28;20221;-81
2022/08/13 01:12:52;;;;;;;7.35;6.57;;;20.50;99.90;;;;;;5062420;28;20281;-80
2022/08/13 01:15:44;;;;;;;7.78;6.88;;;20.60;99.90;;;;;;5021032;28;20232;-80
2022/08/13 01:18:47;;;;;;;8.50;7.70;;;20.50;99.90;;;;;;5047937;28;20250;-80
2022/08/13 01:21:40;;;;;;;9.20;7.20;;;20.40;99.90;;;;;;5060626;28;20218;-79
2022/08/13 01:24:30;;;;;;;8.30;7.03;;;20.40;99.90;;;;;;5061881;28;20303;-80
2022/08/13 01:27:23;;;;;;;8.25;7.40;;;20.40;99.90;;;;;;5063083;28;20288;-81
2022/08/13 01:30:15;;;;;;;8.93;7.22;;;20.40;99.90;;;;;;5053315;28;20252;-78
2022/08/13 01:33:08;;;;;;;8.05;7.30;;;20.40;99.90;;;;;;5048934;28;20228;-80
2022/08/13 01:35:58;;;;;;;8.20;7.40;;;20.30;99.90;;;;;;5063469;28;20239;-80
2022/08/13 01:38:49;;;;;;;8.75;7.35;;;20.20;99.90;;;;;;5047681;28;20224;-80
2022/08/13 01:41:38;;;;;;;9.75;7.03;;;20.30;99.90;;;;;;5055367;28;20230;-81
2022/08/13 01:44:43;;;;;;;9.73;7.53;;;20.30;99.90;;;;;;5059013;28;20212;-80
2022/08/13 01:50:47;;;;;;;8.68;7.88;;;20.30;99.90;;;;;;5058508;28;20228;-81
2022/08/13 01:53:40;;;;;;;9.07;8.18;;;20.30;99.90;;;;;;5060183;28;20258;-80
2022/08/13 01:56:32;;;;;;;8.90;7.82;;;20.30;99.90;;;;;;5055964;28;20220;-81
2022/08/13 01:59:21;;;;;;;9.10;8.30;;;20.30;99.90;;;;;;5060438;28;20257;-79
2022/08/13 02:02:12;;;;;;;10.02;9.02;;;20.30;99.90;;;;;;5060071;28;20223;-78
2022/08/13 02:05:22;;;;;;;9.38;8.48;;;20.30;99.90;;;;;;5059788;28;20593;-80
2022/08/13 02:08:33;;;;;;;8.70;7.65;;;20.30;99.90;;;;;;5045032;28;20253;-79
2022/08/13 02:11:22;;;;;;;9.80;8.35;;;20.30;99.90;;;;;;5047870;28;20799;-79
2022/08/13 02:14:15;;;;;;;9.10;7.75;;;20.40;99.90;;;;;;5047313;28;20919;-79
2022/08/13 02:17:24;;;;;;;9.85;8.00;;;20.30;99.90;;;;;;5040183;28;20251;-79
2022/08/13 02:20:35;;;;;;;9.75;7.90;;;20.30;99.90;;;;;;5045350;28;20231;-80
2022/08/13 02:23:26;;;;;;;10.27;7.75;;;20.30;99.90;;;;;;5060802;28;20275;-79
2022/08/13 02:26:38;;;;;;;8.93;7.55;;;20.40;99.90;;;;;;5061566;28;20231;-78
2022/08/13 02:29:29;;;;;;;8.55;7.68;;;20.40;99.90;;;;;;5062057;28;20716;-79
2022/08/13 02:32:23;;;;;;;7.90;7.10;;;20.50;99.90;;;;;;5059712;28;20715;-79
2022/08/13 02:35:11;;;;;;;10.27;7.68;;;20.40;99.90;;;;;;5060068;28;20224;-79
2022/08/13 02:38:00;;;;;;;9.15;7.50;;;20.40;99.90;;;;;;5060437;28;20306;-80
2022/08/13 02:44:04;;;;;;;7.78;6.95;;;20.40;99.90;;;;;;5060282;28;20315;-81
2022/08/13 02:47:04;;;;;;;8.25;6.90;;;20.40;99.90;;;;;;5059715;28;20221;-87
2022/08/13 02:49:53;;;;;;;7.40;6.70;;;20.40;99.90;;;;;;5045044;28;20708;-84
2022/08/13 02:52:45;;;;;;;7.07;6.05;;;20.40;99.90;;;;;;5042856;28;20719;-84
2022/08/13 02:55:48;;;;;;;7.13;6.38;;;20.40;99.90;;;;;;5046338;28;20258;-85
2022/08/13 02:58:41;;;;;;;8.57;6.45;;;20.40;99.90;;;;;;5059518;28;20366;-84
2022/08/13 03:01:34;;;;;;;9.40;6.18;;;20.40;99.90;;;;;;5043284;28;20659;-87
2022/08/13 03:04:47;;;;;;;6.82;6.22;;;20.30;99.90;;;;;;5045420;28;20224;-88
2022/08/13 03:07:37;;;;;;;8.38;5.90;;;20.40;99.90;;;;;;5061937;28;20213;-87
2022/08/13 03:10:42;;;;;;;7.82;6.45;;;20.30;99.90;;;;;;5045199;28;20212;-86
2022/08/13 03:13:35;;;;;;;7.45;6.20;;;20.40;99.90;;;;;;5058813;28;20224;-86
2022/08/13 03:16:36;;;;;;;6.78;6.07;;;20.30;99.90;;;;;;5039717;28;20581;-84
2022/08/13 03:19:24;;;;;;;6.88;5.93;;;20.40;99.90;;;;;;5044529;28;20219;-83
2022/08/13 03:22:15;;;;;;;6.90;6.20;;;20.30;99.90;;;;;;5057741;28;20832;-85
2022/08/13 03:25:04;;;;;;;7.13;6.53;;;20.20;99.90;;;;;;5061503;28;20228;-84
2022/08/13 03:27:55;;;;;;;8.45;6.93;;;20.20;99.90;;;;;;5047974;28;20243;-80
2022/08/13 03:30:46;;;;;;;7.57;6.85;;;20.20;99.90;;;;;;5044028;28;20224;-79
2022/08/13 03:33:43;;;;;;;8.18;6.63;;;20.20;99.90;;;;;;5058889;28;20231;-80
2022/08/13 03:36:53;;;;;;;10.98;7.28;;;20.10;99.90;;;;;;5057552;28;20278;-81
2022/08/13 03:39:47;;;;;;;9.07;7.43;;;20.20;99.90;;;;;;5056649;28;20277;-80
2022/08/13 03:42:36;;;;;;;9.88;7.22;;;20.20;99.90;;;;;;5057787;28;20227;-82
2022/08/13 03:45:41;;;;;;;10.77;7.50;;;20.20;99.90;;;;;;5058179;28;20272;-81
2022/08/13 03:48:33;;;;;;;8.32;7.50;;;20.20;99.90;;;;;;5058262;28;20893;-80
2022/08/13 03:51:24;;;;;;;9.38;7.70;;;20.10;99.90;;;;;;5059792;28;20212;-79
2022/08/13 03:54:33;;;;;;;10.18;7.13;;;20.10;99.90;;;;;;5055903;28;20285;-79
2022/08/13 03:57:24;;;;;;;10.15;7.72;;;20.10;99.90;;;;;;5049052;28;20608;-81
2022/08/13 04:00:15;;;;;;;10.10;7.50;;;20.20;99.90;;;;;;5063711;28;20994;-79
2022/08/13 04:03:16;;;;;;;8.70;6.97;;;20.10;99.90;;;;;;5044788;28;20227;-79
2022/08/13 04:06:07;;;;;;;8.40;6.78;;;20.10;99.90;;;;;;5069874;28;20231;-76
2022/08/13 04:08:59;;;;;;;9.48;7.25;;;20.10;99.90;;;;;;5066150;28;20374;-78
2022/08/13 04:11:48;;;;;;;8.45;6.93;;;20.10;99.90;;;;;;5065717;28;20228;-77
2022/08/13 04:14:55;;;;;;;9.95;7.55;;;20.10;99.90;;;;;;5048374;28;20712;-78
2022/08/13 04:17:49;;;;;;;7.50;6.80;;;20.20;99.90;;;;;;5047678;28;20695;-78
2022/08/13 04:20:40;;;;;;;7.53;6.82;;;20.20;99.90;;;;;;5059428;28;20277;-77
2022/08/13 04:23:29;;;;;;;8.05;7.25;;;20.20;99.90;;;;;;5060400;28;20314;-76
2022/08/13 04:26:23;;;;;;;11.73;7.07;;;20.20;99.90;;;;;;5063591;28;20739;-77
2022/08/13 04:29:19;;;;;;;12.63;7.40;;;20.20;99.90;;;;;;5060891;28;20215;-75
2022/08/13 04:32:10;;;;;;;10.82;6.45;;;20.20;99.90;;;;;;5052911;28;20273;-69
2022/08/13 04:35:14;;;;;;;10.02;6.80;;;20.20;99.90;;;;;;5068270;28;20232;-77
2022/08/13 04:38:05;;;;;;;9.60;6.97;;;20.20;99.90;;;;;;5061368;28;20219;-75
2022/08/13 04:40:55;;;;;;;10.70;7.15;;;20.20;99.90;;;;;;5063988;28;20227;-77
2022/08/13 04:43:46;;;;;;;7.70;6.90;;;20.20;99.90;;;;;;5051655;28;20220;-77
2022/08/13 04:46:48;;;;;;;7.90;6.95;;;20.20;99.90;;;;;;5048474;28;20234;-76
2022/08/13 04:49:38;;;;;;;7.97;7.28;;;20.30;99.90;;;;;;5061229;28;20235;-76
2022/08/13 04:52:31;;;;;;;8.10;7.30;;;20.20;99.90;;;;;;5046111;28;20220;-76
2022/08/13 04:55:19;;;;;;;8.93;6.90;;;20.20;99.90;;;;;;5060157;28;20226;-77
2022/08/13 04:58:08;;;;;;;8.00;7.10;;;20.20;99.90;;;;;;5059619;28;20597;-76
2022/08/13 05:00:58;;;;;;;9.10;7.40;;;20.30;99.90;;;;;;5059595;28;20217;-77
2022/08/13 05:03:47;;;;;;;8.23;6.45;;;20.30;99.90;;;;;;5043790;28;20751;-78
2022/08/13 05:06:44;;;;;;;8.38;7.13;;;20.30;99.90;;;;;;5043271;28;20263;-78
2022/08/13 05:09:39;;;;;;;7.18;6.47;;;20.30;99.90;;;;;;5057997;28;20238;-79
2022/08/13 05:12:40;;;;;;;10.73;6.97;;;20.40;99.90;;;;;;5044204;28;20226;-78
2022/08/13 05:15:39;;;;;;;11.05;6.60;;;20.40;99.90;;;;;;5057501;28;20315;-79
2022/08/13 05:18:42;;;;;;;7.15;6.45;;;20.50;99.90;;;;;;5060592;28;20884;-78
2022/08/13 05:21:32;;;;;;;8.73;6.70;;;20.50;99.90;;;;;;5058028;28;20232;-78
2022/08/13 05:24:43;;;;;;;9.00;6.75;;;20.50;99.90;;;;;;5062144;28;20220;-78
2022/08/13 05:27:53;;;;;;;8.00;6.50;;;20.40;99.90;;;;;;5059897;28;20224;-79
2022/08/13 05:30:47;;;;;;;9.82;6.75;;;20.30;99.90;;;;;;5058313;28;20791;-77
2022/08/13 05:33:39;;;;;;;11.90;6.78;;;20.60;99.90;;;;;;5061750;28;20224;-75
2022/08/13 05:36:48;;;;;;;8.02;6.97;;;20.60;99.90;;;;;;5060386;28;20228;-77
2022/08/13 05:39:58;;;;;;;7.53;6.32;;;20.60;99.90;;;;;;5060593;28;20224;-78
2022/08/13 05:42:49;;;;;;;7.57;6.78;;;20.70;99.90;;;;;;5058569;28;20220;-78
2022/08/13 05:45:38;;;;;;;8.50;6.88;;;20.70;99.90;;;;;;5060945;28;20228;-78
2022/08/13 05:48:43;;;;;;;9.80;6.75;;;20.90;99.90;;;;;;5057351;28;20270;-77
2022/08/13 05:51:32;;;;;;;8.73;6.88;;;20.80;99.90;;;;;;5057916;28;20228;-76
2022/08/13 05:54:41;;;;;;;11.25;6.47;;;20.90;99.90;;;;;;5053805;28;20220;-77
2022/08/13 05:57:51;;;;;;;10.07;6.40;;;20.90;99.90;;;;;;5063462;28;20232;-76
2022/08/13 06:04:01;;;;;;;11.68;6.75;;;20.90;99.90;;;;;;5061043;28;20231;-78
2022/08/13 06:07:13;;;;;;;11.07;6.63;;;20.90;99.90;;;;;;5041381;28;20236;-78
2022/08/13 06:10:02;;;;;;;9.82;6.90;;;20.90;99.90;;;;;;5059053;28;20305;-76
2022/08/13 06:12:55;;;;;;;8.90;6.95;;;20.80;99.90;;;;;;5059622;28;20336;-77
2022/08/13 06:15:57;;;;;;;11.30;6.45;;;20.80;99.90;;;;;;5059048;28;20567;-77
2022/08/13 06:19:01;;;;;;;11.90;6.68;;;20.80;99.90;;;;;;5056933;28;20615;-78
2022/08/13 06:21:57;;;;;;;9.93;7.72;;;20.70;99.90;;;;;;5039784;28;20224;-77
2022/08/13 06:24:48;;;;;;;8.20;7.03;;;20.60;99.90;;;;;;5059391;28;20712;-77
2022/08/13 06:27:43;;;;;;;14.32;6.85;;;20.70;99.90;;;;;;5057096;28;20216;-79
2022/08/13 06:30:47;;;;;;;11.15;7.10;;;20.60;99.90;;;;;;5055415;28;20223;-77
2022/08/13 06:33:38;;;;;;;8.18;7.32;;;20.50;99.90;;;;;;5044532;28;20220;-79
2022/08/13 06:36:48;;;;;;;8.70;7.07;;;20.30;99.90;;;;;;5057356;28;20767;-80
2022/08/13 06:39:37;;;;;;;9.23;7.38;;;20.10;99.90;;;;;;5063705;28;20506;-81
2022/08/13 06:42:27;;;;;;;14.18;7.85;;;20.00;99.90;;;;;;5043671;28;20227;-79
2022/08/13 06:45:19;;;;;;;11.98;9.15;;;20.00;99.90;;;;;;5045807;28;20324;-79
2022/08/13 06:48:11;;;;;;;24.98;12.00;;;19.80;99.90;;;;;;5060071;28;20221;-79
2022/08/13 06:51:06;;;;;;;26.38;13.23;;;19.70;99.90;;;;;;5028935;28;20710;-78
2022/08/13 06:53:55;;;;;;;16.38;12.82;;;19.40;99.90;;;;;;5024377;28;20224;-78
2022/08/13 06:57:04;;;;;;;14.73;13.02;;;19.30;99.90;;;;;;5038301;28;20244;-80
2022/08/13 07:00:11;;;;;;;18.70;12.45;;;19.30;99.90;;;;;;5030060;28;20221;-80
2022/08/13 07:03:18;;;;;;;13.60;11.90;;;19.30;99.90;;;;;;5016556;28;20309;-79
2022/08/13 07:06:15;;;;;;;17.38;12.93;;;19.50;99.90;;;;;;5020015;28;20994;-79
2022/08/13 07:09:04;;;;;;;15.05;12.20;;;19.50;99.90;;;;;;5032556;28;20239;-76
2022/08/13 07:11:53;;;;;;;13.05;11.68;;;;;;;;;;5023347;28;20218;-79
2022/08/13 07:14:44;;;;;;;14.60;11.27;;;19.60;99.90;;;;;;5036024;28;20214;-79
2022/08/13 07:17:44;;;;;;;16.38;12.32;;;19.60;99.90;;;;;;5030882;28;20222;-81
2022/08/13 07:20:36;;;;;;;25.33;12.82;;;19.70;99.90;;;;;;5019914;28;20229;-81
2022/08/13 07:23:26;;;;;;;15.38;11.90;;;19.70;99.90;;;;;;5028489;28;20386;-82
2022/08/13 07:26:36;;;;;;;14.98;12.27;;;19.70;99.90;;;;;;5024049;28;20217;-82
2022/08/13 07:29:36;;;;;;;15.90;11.52;;;19.80;99.90;;;;;;5034771;28;20226;-82
2022/08/13 07:32:40;;;;;;;11.93;10.57;;;20.00;99.90;;;;;;5021384;28;20232;-82
2022/08/13 07:35:37;;;;;;;11.82;10.60;;;19.90;99.90;;;;;;5016457;28;20226;-82
2022/08/13 07:38:41;;;;;;;12.98;11.02;;;20.00;99.90;;;;;;5019808;28;20247;-82
2022/08/13 07:41:31;;;;;;;10.88;9.70;;;20.10;99.90;;;;;;5030085;28;20733;-82
2022/08/13 07:44:21;;;;;;;15.30;9.52;;;20.20;99.90;;;;;;5031512;28;20305;-82
2022/08/13 07:47:15;;;;;;;11.48;9.80;;;20.30;99.90;;;;;;5034999;28;20244;-81
2022/08/13 07:50:14;;;;;;;11.30;9.63;;;20.50;99.90;;;;;;5048738;28;20224;-84
2022/08/13 07:53:08;;;;;;;12.15;9.98;;;20.40;99.90;;;;;;5046956;28;20311;-82
2022/08/13 07:56:06;;;;;;;10.75;9.65;;;20.40;99.90;;;;;;5044866;28;20228;-86
2022/08/13 07:59:17;;;;;;;10.18;9.07;;;20.50;99.90;;;;;;5061999;28;20225;-87
2022/08/13 08:02:27;;;;;;;12.55;10.05;;;20.50;99.90;;;;;;5048864;28;20212;-90
2022/08/13 08:05:20;;;;;;;10.85;9.80;;;20.50;99.90;;;;;;5054899;28;20247;-87
2022/08/13 08:08:13;;;;;;;9.80;8.65;;;20.50;99.90;;;;;;5064962;28;20228;-92
2022/08/13 08:14:25;;;;;;;10.30;9.20;;;20.30;99.90;;;;;;5044352;28;20216;-81
2022/08/13 08:17:20;;;;;;;9.73;8.73;;;20.40;99.90;;;;;;5048565;28;20232;-80
2022/08/13 08:20:28;;;;;;;11.57;10.48;;;20.40;99.90;;;;;;5054790;28;20227;-80
2022/08/13 08:23:27;;;;;;;10.90;9.35;;;20.50;99.90;;;;;;5054623;28;20265;-81
2022/08/13 08:26:37;;;;;;;10.40;9.40;;;20.70;99.90;;;;;;5039951;28;20285;-81
2022/08/13 08:29:26;;;;;;;8.82;7.90;;;20.80;99.90;;;;;;5058338;28;20386;-84
2022/08/13 08:32:22;;;;;;;10.95;7.25;;;20.90;99.90;;;;;;5056103;28;20217;-83
2022/08/13 08:35:31;;;;;;;8.57;7.78;;;21.10;99.90;;;;;;5043435;28;20227;-82
2022/08/13 08:45:13;;;;;;;8.27;7.55;;;21.80;99.90;;;;;;5048161;28;20361;-79
2022/08/13 08:48:05;;;;;;;10.18;8.15;;;21.50;99.90;;;;;;5059128;28;20220;-78
2022/08/13 08:50:54;;;;;;;9.77;7.40;;;21.70;99.90;;;;;;5021457;28;20225;-79
2022/08/13 08:53:44;;;;;;;8.75;7.95;;;22.00;99.90;;;;;;5005770;28;20225;-80
2022/08/13 08:56:56;;;;;;;7.78;6.97;;;22.40;99.90;;;;;;5025418;28;21420;-80
2022/08/13 08:59:46;;;;;;;8.30;7.40;;;22.30;99.90;;;;;;5009991;28;20225;-78
2022/08/13 09:02:41;;;;;;;10.43;8.27;;;22.40;99.90;;;;;;5024125;28;20222;-79
2022/08/13 09:05:31;;;;;;;9.57;7.20;;;22.70;99.90;;;;;;5026882;28;20225;-79
2022/08/13 09:08:36;;;;;;;8.55;7.15;;;22.80;99.90;;;;;;5011772;28;20256;-78
2022/08/13 09:11:28;;;;;;;7.38;6.70;;;22.90;99.90;;;;;;5020300;28;20213;-79
2022/08/13 09:14:18;;;;;;;8.38;7.00;;;23.00;99.90;;;;;;5023484;28;20590;-78
2022/08/13 09:17:08;;;;;;;7.78;6.65;;;22.90;99.90;;;;;;5014927;28;20229;-79
2022/08/13 09:20:01;;;;;;;7.85;6.60;;;22.70;99.90;;;;;;5025701;28;20229;-80
2022/08/13 09:23:03;;;;;;;7.90;7.10;;;22.70;99.90;;;;;;5013175;28;20221;-81
2022/08/13 09:26:13;;;;;;;8.35;7.40;;;22.60;99.90;;;;;;5022596;28;20224;-80
2022/08/13 09:29:19;;;;;;;10.55;9.07;;;22.50;99.90;;;;;;5022029;28;20225;-80
2022/08/13 09:32:09;;;;;;;10.65;8.73;;;22.70;99.90;;;;;;5011067;28;20724;-80
2022/08/13 09:35:17;;;;;;;9.88;8.95;;;23.70;99.90;;;;;;5021961;28;20233;-79
2022/08/13 09:38:07;;;;;;;9.38;8.48;;;23.60;99.90;;;;;;5010532;28;20705;-80
2022/08/13 09:41:08;;;;;;;9.30;8.10;;;23.90;99.90;;;;;;5003588;28;20233;-80
2022/08/13 09:44:07;;;;;;;8.98;8.07;;;23.80;99.90;;;;;;5023894;28;20225;-79
2022/08/13 09:47:10;;;;;;;10.63;8.65;;;23.60;99.90;;;;;;5022799;28;20229;-81
2022/08/13 09:50:21;;;;;;;9.35;8.02;;;23.40;99.90;;;;;;5018838;28;20213;-79
2022/08/13 09:53:10;;;;;;;9.38;8.10;;;23.30;99.90;;;;;;5022410;28;20214;-79
2022/08/13 09:56:00;;;;;;;9.27;8.15;;;23.70;99.90;;;;;;5023597;28;20232;-79
2022/08/13 09:58:54;;;;;;;9.40;8.32;;;23.90;99.90;;;;;;5033302;28;20241;-79
2022/08/13 10:01:44;;;;;;;12.27;8.45;;;23.80;99.90;;;;;;5025460;28;20213;-79
2022/08/13 10:04:47;;;;;;;9.40;8.43;;;24.00;99.90;;;;;;5029361;28;20315;-79
2022/08/13 10:07:39;;;;;;;10.65;8.63;;;24.00;99.90;;;;;;5036339;28;20233;-79
2022/08/13 10:10:37;;;;;;;10.07;8.88;;;23.90;99.90;;;;;;5037938;28;20679;-79
2022/08/13 10:13:26;;;;;;;9.85;9.02;;;23.80;99.90;;;;;;5024584;28;20229;-80
2022/08/13 10:16:36;;;;;;;9.25;8.30;;;23.30;99.90;;;;;;5022685;28;20222;-79
2022/08/13 10:19:26;;;;;;;10.68;8.30;;;23.70;99.90;;;;;;5041744;28;20845;-80
2022/08/13 10:22:18;;;;;;;8.10;7.40;;;23.70;99.90;;;;;;5024700;28;20279;-80
2022/08/13 10:25:12;;;;;;;8.75;7.25;;;23.80;99.90;;;;;;5039211;28;20227;-78
2022/08/13 10:28:01;;;;;;;8.50;7.13;;;24.10;99.90;;;;;;5041520;28;20721;-78
2022/08/13 10:30:50;;;;;;;7.90;7.00;;;24.60;99.90;;;;;;5021972;28;20230;-80
2022/08/13 10:33:54;;;;;;;9.18;7.75;;;24.70;99.90;;;;;;5024132;28;20268;-79
2022/08/13 10:36:45;;;;;;;8.80;7.03;;;25.30;99.90;;;;;;5025113;28;20221;-80
2022/08/13 10:39:35;;;;;;;6.93;6.22;;;26.30;99.90;;;;;;5023119;28;20227;-79
2022/08/13 10:42:44;;;;;;;7.53;6.60;;;28.30;99.90;;;;;;5030367;28;20214;-79
2022/08/13 10:45:35;;;;;;;6.63;6.00;;;29.40;99.90;;;;;;5033014;28;20332;-79
2022/08/13 10:48:25;;;;;;;7.15;6.55;;;29.80;99.90;;;;;;5021775;28;20218;-79
2022/08/13 10:51:14;;;;;;;6.75;6.20;;;28.90;99.90;;;;;;5058891;28;20223;-81
2022/08/13 10:54:14;;;;;;;7.05;6.45;;;28.70;99.90;;;;;;5060104;28;20999;-80
2022/08/13 10:57:20;;;;;;;6.95;6.00;;;28.60;99.90;;;;;;5047876;28;20220;-80
2022/08/13 11:00:11;;;;;;;8.23;6.10;;;30.00;99.90;;;;;;5044089;28;20608;-79
2022/08/13 11:03:00;;;;;;;6.53;5.80;;;30.80;99.90;;;;;;5059188;28;20228;-81
2022/08/13 11:05:49;;;;;;;6.53;6.03;;;29.40;99.90;;;;;;5042281;28;20365;-81
2022/08/13 11:08:40;;;;;;;5.97;5.47;;;29.60;99.90;;;;;;5047290;28;20216;-80
2022/08/13 11:11:34;;;;;;;6.60;5.43;;;30.10;99.90;;;;;;5042533;28;20216;-80
2022/08/13 11:14:46;;;;;;;6.28;5.30;;;29.50;99.90;;;;;;5044971;28;20756;-79
2022/08/13 11:17:35;;;;;;;8.25;5.65;;;28.40;99.90;;;;;;5061362;28;20241;-80
2022/08/13 11:21:02;;;;;;;6.78;5.45;;;28.00;99.90;;;;;;5048645;28;20227;-80
2022/08/13 11:24:11;;;;;;;6.00;5.25;;;27.40;99.90;;;;;;5045751;28;20220;-79
2022/08/13 11:27:01;;;;;;;7.15;6.28;;;26.90;99.90;;;;;;5060897;28;20231;-79
2022/08/13 11:29:52;;;;;;;6.82;5.80;;;26.50;99.90;;;;;;5043794;28;20243;-79
2022/08/13 11:32:43;;;;;;;10.57;6.63;;;26.60;99.90;;;;;;5050039;28;20448;-78
2022/08/13 11:35:34;;;;;;;6.82;6.10;;;26.70;99.90;;;;;;5063608;28;20493;-79
2022/08/13 11:38:25;;;;;;;8.80;6.47;;;27.00;99.90;;;;;;5059907;28;20227;-79
2022/08/13 11:41:15;;;;;;;8.30;5.80;;;26.60;99.90;;;;;;5061261;28;20299;-80
2022/08/13 11:44:07;;;;;;;6.32;5.72;;;26.50;99.90;;;;;;5058721;28;20257;-80
2022/08/13 11:46:57;;;;;;;6.65;6.00;;;26.10;99.90;;;;;;5045077;28;20235;-80
2022/08/13 11:49:57;;;;;;;6.63;6.00;;;25.90;99.90;;;;;;5062720;28;20310;-81
2022/08/13 11:52:45;;;;;;;7.80;6.30;;;25.60;99.90;;;;;;5060176;28;20588;-80
2022/08/13 11:55:34;;;;;;;7.57;6.15;;;25.50;99.90;;;;;;5059952;28;20252;-79
2022/08/13 11:58:43;;;;;;;6.13;5.63;;;25.60;99.90;;;;;;5046222;28;20227;-80
2022/08/13 12:01:43;;;;;;;6.53;5.95;;;25.50;99.90;;;;;;5060141;28;20365;-79
2022/08/13 12:04:36;;;;;;;6.90;5.75;;;25.50;99.90;;;;;;5061915;28;20216;-78
2022/08/13 12:07:25;;;;;;;7.43;6.03;;;25.50;99.90;;;;;;5058041;28;20680;-80
2022/08/13 12:10:16;;;;;;;6.57;5.90;;;25.50;99.90;;;;;;5042872;28;20236;-79
2022/08/13 12:13:25;;;;;;;6.45;5.72;;;25.60;99.90;;;;;;5049390;28;20348;-80
2022/08/13 12:16:14;;;;;;;8.98;5.97;;;25.70;99.90;;;;;;5043312;28;20209;-79
2022/08/13 12:19:03;;;;;;;7.50;5.82;;;25.60;99.90;;;;;;5047621;28;20226;-79
2022/08/13 12:22:13;;;;;;;6.32;5.72;;;25.40;99.90;;;;;;5050497;28;20303;-78
2022/08/13 12:25:02;;;;;;;8.18;5.85;;;25.30;99.90;;;;;;5058137;28;20228;-80
2022/08/13 12:28:17;;;;;;;6.55;5.90;;;25.50;99.90;;;;;;5042552;28;20270;-79
2022/08/13 12:31:17;;;;;;;6.97;6.05;;;25.40;99.90;;;;;;5047708;28;20220;-79
2022/08/13 12:34:06;;;;;;;6.90;6.30;;;25.30;99.90;;;;;;5066916;28;20224;-81
2022/08/13 12:36:56;;;;;;;6.82;6.03;;;25.20;99.90;;;;;;5064636;28;20235;-79
2022/08/13 12:39:46;;;;;;;6.95;5.90;;;25.00;99.90;;;;;;5064208;28;20297;-80
2022/08/13 12:42:39;;;;;;;7.13;5.80;;;24.90;99.90;;;;;;5051017;28;20212;-79
2022/08/13 12:45:28;;;;;;;7.82;6.45;;;24.90;99.90;;;;;;5064344;28;20216;-80
2022/08/13 12:48:36;;;;;;;7.47;6.30;;;25.00;99.90;;;;;;5064293;28;20269;-80
2022/08/13 12:51:25;;;;;;;6.82;6.07;;;24.80;99.90;;;;;;5058500;28;20224;-80
2022/08/13 12:54:34;;;;;;;9.80;6.43;;;24.90;99.90;;;;;;5063872;28;20227;-79
2022/08/13 12:57:44;;;;;;;6.80;6.20;;;25.00;99.90;;;;;;5062261;28;20212;-80
2022/08/13 13:00:54;;;;;;;6.68;5.90;;;25.20;99.90;;;;;;5064282;28;20220;-81
2022/08/13 13:03:43;;;;;;;6.93;6.22;;;25.30;99.90;;;;;;5046418;28;20220;-79
2022/08/13 13:06:40;;;;;;;6.50;5.88;;;25.30;99.90;;;;;;5060109;28;20220;-79
2022/08/13 13:09:36;;;;;;;6.78;6.05;;;25.40;99.90;;;;;;5061081;28;20224;-79
2022/08/13 13:12:37;;;;;;;6.88;6.05;;;25.30;99.90;;;;;;5043980;28;20231;-80
2022/08/13 13:15:27;;;;;;;7.00;6.28;;;25.50;99.90;;;;;;5061694;28;20219;-81
2022/08/13 13:18:35;;;;;;;6.57;5.97;;;25.50;99.90;;;;;;5057452;28;20222;-80
2022/08/13 13:21:42;;;;;;;6.55;5.90;;;25.80;99.90;;;;;;5046069;28;20224;-78
2022/08/13 13:24:31;;;;;;;7.75;6.32;;;25.90;99.90;;;;;;5048703;28;20220;-80
2022/08/13 13:27:40;;;;;;;6.80;6.10;;;26.00;99.90;;;;;;5061548;28;20209;-80
2022/08/13 13:30:36;;;;;;;8.25;6.40;;;26.00;99.90;;;;;;5064491;28;20223;-79
2022/08/13 13:33:31;;;;;;;7.70;6.60;;;25.90;99.90;;;;;;5061558;28;20240;-79
2022/08/13 13:36:30;;;;;;;7.88;6.55;;;25.80;99.90;;;;;;5062261;28;21043;-80
2022/08/13 13:39:21;;;;;;;9.93;6.50;;;25.60;99.90;;;;;;5050131;28;20223;-80
2022/08/13 13:42:10;;;;;;;7.45;6.70;;;25.50;99.90;;;;;;5050817;28;20225;-80
2022/08/13 13:45:16;;;;;;;7.30;6.28;;;25.50;99.90;;;;;;5063058;28;20813;-79
2022/08/13 13:48:23;;;;;;;7.38;6.57;;;25.50;99.90;;;;;;5067742;28;20295;-81
2022/08/13 13:51:14;;;;;;;7.50;6.78;;;25.40;99.90;;;;;;5049629;28;20223;-80
2022/08/13 13:54:04;;;;;;;7.20;6.50;;;25.30;99.90;;;;;;5064405;28;20243;-79
2022/08/13 13:57:13;;;;;;;6.65;5.97;;;25.30;99.90;;;;;;5049562;28;20224;-80
2022/08/13 14:00:02;;;;;;;7.10;6.40;;;25.30;99.90;;;;;;5048441;28;20228;-81
2022/08/13 14:02:55;;;;;;;8.13;5.85;;;25.30;99.90;;;;;;5061775;28;20609;-81
2022/08/13 14:05:46;;;;;;;6.78;5.55;;;25.30;99.90;;;;;;5062104;28;20224;-81
2022/08/13 14:08:49;;;;;;;6.82;5.75;;;25.30;99.90;;;;;;5049295;28;20288;-79
2022/08/13 14:11:40;;;;;;;6.43;5.72;;;25.30;99.90;;;;;;5062970;28;20251;-79
2022/08/13 14:14:37;;;;;;;11.10;6.70;;;25.40;99.90;;;;;;5062155;28;20581;-79
2022/08/13 14:17:30;;;;;;;6.88;5.55;;;25.40;99.90;;;;;;5063847;28;20224;-80
2022/08/13 14:20:19;;;;;;;7.35;5.68;;;25.40;99.90;;;;;;5063414;28;20225;-80
2022/08/13 14:23:47;;;;;;;7.15;4.97;;;25.40;99.90;;;;;;5047071;28;20220;-80
2022/08/13 14:26:37;;;;;;;7.28;5.35;;;25.30;99.90;;;;;;5060731;28;20707;-81
2022/08/13 14:29:27;;;;;;;7.72;6.05;;;25.30;99.90;;;;;;5061100;28;20221;-81
2022/08/13 14:32:17;;;;;;;7.25;5.55;;;25.30;99.90;;;;;;5060092;28;20235;-80
2022/08/13 14:35:13;;;;;;;8.25;5.43;;;25.30;99.90;;;;;;5062561;28;20231;-80
2022/08/13 14:38:04;;;;;;;6.43;5.70;;;25.30;99.90;;;;;;5061754;28;20224;-80
2022/08/13 14:40:54;;;;;;;7.50;5.95;;;25.30;99.90;;;;;;5062175;28;20704;-80
2022/08/13 14:43:47;;;;;;;6.35;5.63;;;25.40;99.90;;;;;;5058785;28;20597;-80
2022/08/13 14:46:50;;;;;;;6.68;6.05;;;25.40;99.90;;;;;;5045758;28;20718;-80
2022/08/13 14:49:39;;;;;;;5.72;5.22;;;25.50;99.90;;;;;;5061502;28;20227;-80
2022/08/13 14:52:45;;;;;;;6.28;5.68;;;25.60;99.90;;;;;;5046977;28;20231;-79
2022/08/13 14:55:49;;;;;;;6.07;5.47;;;25.70;99.90;;;;;;5060479;28;20219;-79
2022/08/13 14:58:39;;;;;;;6.97;6.10;;;25.70;99.90;;;;;;5062937;28;20230;-82
2022/08/13 15:01:29;;;;;;;7.03;5.38;;;25.70;99.90;;;;;;5059365;28;20230;-79
2022/08/13 15:04:20;;;;;;;6.72;5.97;;;25.80;99.90;;;;;;5060776;28;20273;-79
2022/08/13 15:07:11;;;;;;;8.85;6.70;;;25.80;99.90;;;;;;5057445;28;20772;-80
2022/08/13 15:10:00;;;;;;;6.60;5.88;;;25.80;99.90;;;;;;5062034;28;20220;-79
2022/08/13 15:12:51;;;;;;;7.10;5.82;;;25.80;99.90;;;;;;5049138;28;20700;-81
2022/08/13 15:15:44;;;;;;;7.25;6.05;;;25.90;99.90;;;;;;5056375;28;20307;-80
2022/08/13 15:18:42;;;;;;;6.05;5.45;;;25.90;99.90;;;;;;5030842;28;20227;-79
2022/08/13 15:21:41;;;;;;;7.28;6.35;;;25.80;99.90;;;;;;5061746;28;20220;-79
2022/08/13 15:24:37;;;;;;;8.68;6.15;;;25.80;99.90;;;;;;5045435;28;20213;-80
2022/08/13 15:27:42;;;;;;;6.32;5.72;;;25.70;99.90;;;;;;5060117;28;20302;-80
2022/08/13 15:30:33;;;;;;;6.60;5.90;;;25.70;99.90;;;;;;5056415;28;20238;-79
2022/08/13 15:33:25;;;;;;;8.02;6.07;;;25.70;99.90;;;;;;5046873;28;20227;-80
2022/08/13 15:36:25;;;;;;;6.97;6.20;;;25.80;99.90;;;;;;5045548;28;20277;-80